createdAt,value
2022-08-20T00:01:01.919Z,19.30
2022-08-20T00:03:33.582Z,19.30
2022-08-20T00:06:05.299Z,19.30
2022-08-20T00:08:34.191Z,19.20
2022-08-20T00:11:03.400Z,19.20
2022-08-20T00:13:35.691Z,19.20
2022-08-20T00:16:06.340Z,19.20
2022-08-20T00:18:37.061Z,19.20
2022-08-20T00:21:08.534Z,19.10
2022-08-20T00:23:38.039Z,19.10
2022-08-20T00:26:08.101Z,19.10
2022-08-20T00:28:36.771Z,19.10
2022-08-20T00:31:09.636Z,19.20
2022-08-20T00:33:39.438Z,19.20
2022-08-20T00:36:10.874Z,19.30
2022-08-20T00:38:40.665Z,19.20
2022-08-20T00:41:13.714Z,19.20
2022-08-20T00:43:45.556Z,19.20
2022-08-20T00:46:20.460Z,19.20
2022-08-20T00:48:52.575Z,19.20
2022-08-20T00:51:27.902Z,19.20
2022-08-20T00:54:03.437Z,19.20
2022-08-20T00:56:34.560Z,19.20
2022-08-20T00:59:05.482Z,19.20
2022-08-20T01:01:40.666Z,19.20
2022-08-20T01:04:26.433Z,19.30
2022-08-20T01:06:56.384Z,19.30
2022-08-20T01:09:50.201Z,19.30
2022-08-20T01:12:16.146Z,19.30
2022-08-20T01:14:46.641Z,19.40
2022-08-20T01:17:19.914Z,19.40
2022-08-20T01:19:53.020Z,19.50
2022-08-20T01:22:47.116Z,19.40
2022-08-20T01:25:24.036Z,19.40
2022-08-20T01:27:56.187Z,19.30
2022-08-20T01:30:29.909Z,19.30
2022-08-20T01:32:58.593Z,19.30
2022-08-20T01:35:29.446Z,19.30
2022-08-20T01:37:58.101Z,19.20
2022-08-20T01:40:45.596Z,19.20
2022-08-20T01:43:16.110Z,19.20
2022-08-20T01:45:46.453Z,19.10
2022-08-20T01:48:19.656Z,19.10
2022-08-20T01:50:56.803Z,19.10
2022-08-20T01:53:33.487Z,19.10
2022-08-20T01:56:02.921Z,19.10
2022-08-20T01:58:34.993Z,19.00
2022-08-20T02:01:03.705Z,18.90
2022-08-20T02:03:37.409Z,18.90
2022-08-20T02:06:07.819Z,18.80
2022-08-20T02:08:36.471Z,18.80
2022-08-20T02:11:05.183Z,18.70
2022-08-20T02:13:35.221Z,18.70
2022-08-20T02:16:04.184Z,18.60
2022-08-20T02:18:33.001Z,18.70
2022-08-20T02:21:02.171Z,18.70
2022-08-20T02:23:31.358Z,18.80
2022-08-20T02:26:00.674Z,18.70
2022-08-20T02:28:29.999Z,18.70
2022-08-20T02:31:01.729Z,18.80
2022-08-20T02:33:30.383Z,18.80
2022-08-20T02:35:59.086Z,18.70
2022-08-20T02:38:27.999Z,18.80
2022-08-20T02:40:56.733Z,18.80
2022-08-20T02:43:25.438Z,18.80
2022-08-20T02:45:54.368Z,18.70
2022-08-20T02:48:24.414Z,18.80
2022-08-20T02:50:56.837Z,18.80
2022-08-20T02:53:27.072Z,18.90
2022-08-20T02:55:56.255Z,18.80
2022-08-20T02:58:25.328Z,18.80
2022-08-20T03:00:54.264Z,18.90
2022-08-20T03:03:25.096Z,18.80
2022-08-20T03:05:56.552Z,18.70
2022-08-20T03:08:26.274Z,18.60
2022-08-20T03:10:55.286Z,18.50
2022-08-20T03:13:24.395Z,18.30
2022-08-20T03:15:58.784Z,18.30
2022-08-20T03:18:31.199Z,18.20
2022-08-20T03:21:00.466Z,18.20
2022-08-20T03:23:29.363Z,18.10
2022-08-20T03:25:58.079Z,18.10
2022-08-20T03:28:26.897Z,18.20
2022-08-20T03:30:56.571Z,18.20
2022-08-20T03:33:25.396Z,18.10
2022-08-20T03:35:56.157Z,18.10
2022-08-20T03:38:32.483Z,18.20
2022-08-20T03:41:03.164Z,18.20
2022-08-20T03:43:32.824Z,18.20
2022-08-20T03:46:01.541Z,18.20
2022-08-20T03:48:31.069Z,18.30
2022-08-20T03:51:01.780Z,18.30
2022-08-20T03:53:31.875Z,18.40
2022-08-20T03:56:04.388Z,18.50
2022-08-20T03:58:36.269Z,18.60
2022-08-20T04:01:07.456Z,18.60
2022-08-20T04:03:41.444Z,18.50
2022-08-20T04:06:11.489Z,18.50
2022-08-20T04:08:41.849Z,18.40
2022-08-20T04:11:10.686Z,18.40
2022-08-20T04:13:42.629Z,18.40
2022-08-20T04:16:14.423Z,18.40
2022-08-20T04:19:02.010Z,18.40
2022-08-20T04:21:33.637Z,18.30
2022-08-20T04:24:03.415Z,18.30
2022-08-20T04:26:32.634Z,18.30
2022-08-20T04:29:01.328Z,18.30
2022-08-20T04:31:33.677Z,18.30
2022-08-20T04:34:03.067Z,18.30
2022-08-20T04:36:33.237Z,18.30
2022-08-20T04:39:02.158Z,18.30
2022-08-20T04:41:30.854Z,18.20
2022-08-20T04:44:00.006Z,18.20
2022-08-20T04:46:29.183Z,18.10
2022-08-20T04:48:58.902Z,18.10
2022-08-20T04:51:27.991Z,18.10
2022-08-20T04:53:58.712Z,18.10
2022-08-20T04:56:29.287Z,18.20
2022-08-20T04:59:01.734Z,18.20
2022-08-20T05:01:30.647Z,18.20
2022-08-20T05:04:00.281Z,18.20
2022-08-20T05:06:31.545Z,18.40
2022-08-20T05:09:02.417Z,18.30
2022-08-20T05:11:35.774Z,18.30
2022-08-20T05:14:08.934Z,18.30
2022-08-20T05:16:41.445Z,18.30
2022-08-20T05:19:12.572Z,18.20
2022-08-20T05:21:41.685Z,18.20
2022-08-20T05:24:12.300Z,18.30
2022-08-20T05:26:41.001Z,18.20
2022-08-20T05:29:09.786Z,18.30
2022-08-20T05:31:39.335Z,18.20
2022-08-20T05:34:11.024Z,18.30
2022-08-20T05:36:41.412Z,18.30
2022-08-20T05:39:13.480Z,18.30
2022-08-20T05:41:42.747Z,18.40
2022-08-20T05:44:13.855Z,18.50
2022-08-20T05:46:44.437Z,18.50
2022-08-20T05:49:16.639Z,18.60
2022-08-20T05:51:45.365Z,18.50
2022-08-20T05:54:15.993Z,18.50
2022-08-20T05:56:45.052Z,18.40
2022-08-20T05:59:14.107Z,18.40
2022-08-20T06:01:43.984Z,18.40
2022-08-20T06:04:28.141Z,18.40
2022-08-20T06:06:59.746Z,18.40
2022-08-20T06:09:31.700Z,18.40
2022-08-20T06:12:03.533Z,18.40
2022-08-20T06:14:32.820Z,18.50
2022-08-20T06:17:09.775Z,18.50
2022-08-20T06:19:39.637Z,18.50
2022-08-20T06:22:21.250Z,18.60
2022-08-20T06:24:55.884Z,18.60
2022-08-20T06:27:25.031Z,18.70
2022-08-20T06:29:54.452Z,18.80
2022-08-20T06:32:28.900Z,18.80
2022-08-20T06:35:03.593Z,18.90
2022-08-20T06:37:33.758Z,19.00
2022-08-20T06:40:07.226Z,19.10
2022-08-20T06:42:36.242Z,19.10
2022-08-20T06:45:05.927Z,19.10
2022-08-20T06:47:35.439Z,19.00
2022-08-20T06:50:04.063Z,18.90
2022-08-20T06:52:51.783Z,18.90
2022-08-20T06:55:23.824Z,18.90
2022-08-20T06:57:59.376Z,19.00
2022-08-20T07:00:29.496Z,19.20
2022-08-20T07:03:00.651Z,19.20
2022-08-20T07:05:29.720Z,19.30
2022-08-20T07:07:58.774Z,19.50
2022-08-20T07:10:30.253Z,19.60
2022-08-20T07:12:59.315Z,19.60
2022-08-20T07:15:28.432Z,19.50
2022-08-20T07:18:01.445Z,19.50
2022-08-20T07:20:31.847Z,19.40
2022-08-20T07:23:01.222Z,19.30
2022-08-20T07:25:33.651Z,19.20
2022-08-20T07:28:04.019Z,19.10
2022-08-20T07:30:57.083Z,19.10
2022-08-20T07:33:28.586Z,19.10
2022-08-20T07:35:59.608Z,19.20
2022-08-20T07:38:31.038Z,19.20
2022-08-20T07:41:03.335Z,19.30
2022-08-20T07:43:32.799Z,19.30
2022-08-20T07:46:07.553Z,19.30
2022-08-20T07:48:40.173Z,19.30
2022-08-20T07:51:11.034Z,19.30
2022-08-20T07:53:41.015Z,19.30
2022-08-20T07:56:14.839Z,19.30
2022-08-20T07:58:50.439Z,19.40
2022-08-20T08:01:21.615Z,19.50
2022-08-20T08:03:50.914Z,19.60
2022-08-20T08:06:29.422Z,19.80
2022-08-20T08:09:03.415Z,19.70
2022-08-20T08:11:37.850Z,19.70
2022-08-20T08:14:09.599Z,19.80
2022-08-20T08:16:39.233Z,19.80
2022-08-20T08:19:12.098Z,19.90
2022-08-20T08:21:43.582Z,20.00
2022-08-20T08:24:16.636Z,20.00
2022-08-20T08:26:52.660Z,20.10
2022-08-20T08:29:21.354Z,20.10
2022-08-20T08:31:50.080Z,20.20
2022-08-20T08:34:18.782Z,20.30
2022-08-20T08:36:47.432Z,20.30
2022-08-20T08:39:16.240Z,20.40
2022-08-20T08:41:49.659Z,20.50
2022-08-20T08:44:24.168Z,20.60
2022-08-20T08:46:56.395Z,20.50
2022-08-20T08:49:30.178Z,20.60
2022-08-20T08:52:11.616Z,20.70
2022-08-20T08:54:44.061Z,20.80
2022-08-20T08:57:12.717Z,20.80
2022-08-20T08:59:52.268Z,20.90
2022-08-20T09:02:33.079Z,21.00
2022-08-20T09:05:05.214Z,21.10
2022-08-20T09:07:36.034Z,21.20
2022-08-20T09:10:06.722Z,21.30
2022-08-20T09:12:35.312Z,21.30
2022-08-20T09:15:06.385Z,21.40
2022-08-20T09:17:34.988Z,21.40
2022-08-20T09:20:05.157Z,21.50
2022-08-20T09:22:34.521Z,21.70
2022-08-20T09:25:03.816Z,21.80
2022-08-20T09:27:32.591Z,21.90
2022-08-20T09:30:01.321Z,22.00
2022-08-20T09:32:31.433Z,22.10
2022-08-20T09:35:00.962Z,22.10
2022-08-20T09:37:36.745Z,22.20
2022-08-20T09:40:08.471Z,22.50
2022-08-20T09:42:41.540Z,22.80
2022-08-20T09:45:11.846Z,22.90
2022-08-20T09:47:55.081Z,23.40
2022-08-20T09:50:26.549Z,23.80
2022-08-20T09:52:57.765Z,24.30
2022-08-20T09:55:33.497Z,24.50
2022-08-20T09:58:03.482Z,24.60
2022-08-20T10:00:32.328Z,24.40
2022-08-20T10:03:03.497Z,24.20
2022-08-20T10:05:32.461Z,23.80
2022-08-20T10:08:01.358Z,23.40
2022-08-20T10:10:30.248Z,22.90
2022-08-20T10:12:58.837Z,22.50
2022-08-20T10:15:27.637Z,22.30
2022-08-20T10:17:57.222Z,22.10
2022-08-20T10:20:27.670Z,22.40
2022-08-20T10:22:56.292Z,22.90
2022-08-20T10:25:25.068Z,23.20
2022-08-20T10:27:54.090Z,23.70
2022-08-20T10:30:23.048Z,24.00
2022-08-20T10:32:51.632Z,23.90
2022-08-20T10:35:20.566Z,23.70
2022-08-20T10:37:50.832Z,23.30
2022-08-20T10:40:19.902Z,23.10
2022-08-20T10:42:48.864Z,22.90
2022-08-20T10:45:17.849Z,22.90
2022-08-20T10:47:46.596Z,23.10
2022-08-20T10:50:20.060Z,23.60
2022-08-20T10:52:50.272Z,24.20
2022-08-20T10:55:20.556Z,24.30
2022-08-20T10:57:49.291Z,24.70
2022-08-20T11:00:19.704Z,25.10
2022-08-20T11:02:48.574Z,25.50
2022-08-20T11:05:17.290Z,25.60
2022-08-20T11:07:55.375Z,26.00
2022-08-20T11:10:34.163Z,26.10
2022-08-20T11:13:03.450Z,26.00
2022-08-20T11:15:33.581Z,26.30
2022-08-20T11:18:02.302Z,26.10
2022-08-20T11:20:32.036Z,26.20
2022-08-20T11:23:01.162Z,26.30
2022-08-20T11:25:31.196Z,26.40
2022-08-20T11:28:00.103Z,26.40
2022-08-20T11:30:32.145Z,26.80
2022-08-20T11:33:01.684Z,27.20
2022-08-20T11:35:49.982Z,27.50
2022-08-20T11:38:19.349Z,27.00
2022-08-20T11:40:49.361Z,27.20
2022-08-20T11:43:18.515Z,27.00
2022-08-20T11:45:52.486Z,26.70
2022-08-20T11:48:21.800Z,26.60
2022-08-20T11:50:51.312Z,26.50
2022-08-20T11:53:20.157Z,26.70
2022-08-20T11:55:51.756Z,26.70
2022-08-20T11:58:21.525Z,27.10
2022-08-20T12:00:50.295Z,27.30
2022-08-20T12:03:19.034Z,26.90
2022-08-20T12:05:48.033Z,26.60
2022-08-20T12:08:27.146Z,26.40
2022-08-20T12:11:00.461Z,26.10
2022-08-20T12:13:48.570Z,25.70
2022-08-20T12:16:18.798Z,25.80
2022-08-20T12:18:48.166Z,26.20
2022-08-20T12:21:17.705Z,26.30
2022-08-20T12:23:46.505Z,26.50
2022-08-20T12:26:17.255Z,26.50
2022-08-20T12:28:45.879Z,26.90
2022-08-20T12:31:14.540Z,27.20
2022-08-20T12:33:43.198Z,26.80
2022-08-20T12:36:12.148Z,26.60
2022-08-20T12:38:40.711Z,26.80
2022-08-20T12:41:09.363Z,26.80
2022-08-20T12:43:39.468Z,27.30
2022-08-20T12:46:08.134Z,26.70
2022-08-20T12:48:36.757Z,26.70
2022-08-20T12:51:05.658Z,27.10
2022-08-20T12:53:34.487Z,27.20
2022-08-20T12:56:05.392Z,27.30
2022-08-20T12:58:34.681Z,27.60
2022-08-20T13:01:04.720Z,28.00
2022-08-20T13:03:33.393Z,28.40
2022-08-20T13:06:11.717Z,28.70
2022-08-20T13:08:40.406Z,28.90
2022-08-20T13:11:09.012Z,28.70
2022-08-20T13:13:37.592Z,28.40
2022-08-20T13:16:07.923Z,28.90
2022-08-20T13:18:36.579Z,29.00
2022-08-20T13:21:05.631Z,29.00
2022-08-20T13:23:34.217Z,28.30
2022-08-20T13:26:02.811Z,27.50
2022-08-20T13:28:31.676Z,27.30
2022-08-20T13:31:02.017Z,27.70
2022-08-20T13:33:32.553Z,28.10
2022-08-20T13:36:02.643Z,28.40
2022-08-20T13:38:32.302Z,28.40
2022-08-20T13:41:00.937Z,28.60
2022-08-20T13:43:29.536Z,28.80
2022-08-20T13:45:58.149Z,28.80
2022-08-20T13:48:26.825Z,28.60
2022-08-20T13:50:56.818Z,28.70
2022-08-20T13:53:26.319Z,28.80
2022-08-20T13:55:56.058Z,28.80
2022-08-20T13:58:24.888Z,28.10
2022-08-20T14:00:54.105Z,27.90
2022-08-20T14:03:25.749Z,28.10
2022-08-20T14:05:56.132Z,28.20
2022-08-20T14:08:25.738Z,28.90
2022-08-20T14:10:54.699Z,29.30
2022-08-20T14:13:28.364Z,29.60
2022-08-20T14:15:57.473Z,29.70
2022-08-20T14:18:26.326Z,29.80
2022-08-20T14:20:56.530Z,29.50
2022-08-20T14:23:25.203Z,28.30
2022-08-20T14:25:53.831Z,27.70
2022-08-20T14:28:25.013Z,27.70
2022-08-20T14:30:54.170Z,27.70
2022-08-20T14:33:24.275Z,27.70
2022-08-20T14:35:53.985Z,27.50
2022-08-20T14:38:23.954Z,27.20
2022-08-20T14:40:52.854Z,27.10
2022-08-20T14:43:21.490Z,27.10
2022-08-20T14:45:50.126Z,27.30
2022-08-20T14:48:18.758Z,27.70
2022-08-20T14:50:47.423Z,28.10
2022-08-20T14:53:16.164Z,28.30
2022-08-20T14:55:46.193Z,27.80
2022-08-20T14:58:17.048Z,27.50
2022-08-20T15:00:45.882Z,27.20
2022-08-20T15:03:14.706Z,27.60
2022-08-20T15:05:43.980Z,27.60
2022-08-20T15:08:13.061Z,27.70
2022-08-20T15:10:42.186Z,27.90
2022-08-20T15:13:12.151Z,27.80
2022-08-20T15:15:41.669Z,27.80
2022-08-20T15:18:10.381Z,27.20
2022-08-20T15:20:39.782Z,27.00
2022-08-20T15:23:08.497Z,27.10
2022-08-20T15:25:38.180Z,27.70
2022-08-20T15:28:09.472Z,27.80
2022-08-20T15:30:41.753Z,27.20
2022-08-20T15:33:11.364Z,27.20
2022-08-20T15:35:40.398Z,26.90
2022-08-20T15:38:09.408Z,27.00
2022-08-20T15:40:38.281Z,27.50
2022-08-20T15:43:07.606Z,27.90
2022-08-20T15:45:37.265Z,28.10
2022-08-20T15:48:14.278Z,27.80
2022-08-20T15:51:03.539Z,27.60
2022-08-20T15:53:36.484Z,27.30
2022-08-20T15:56:12.570Z,27.40
2022-08-20T15:58:49.666Z,27.40
2022-08-20T16:01:28.571Z,27.50
2022-08-20T16:04:11.551Z,27.80
2022-08-20T16:06:41.106Z,27.90
2022-08-20T16:09:27.110Z,27.30
2022-08-20T16:12:03.494Z,27.20
2022-08-20T16:14:36.235Z,27.30
2022-08-20T16:17:08.114Z,27.20
2022-08-20T16:19:49.547Z,27.10
2022-08-20T16:22:19.552Z,26.70
2022-08-20T16:24:48.633Z,26.20
2022-08-20T16:27:29.514Z,25.90
2022-08-20T16:30:02.711Z,25.50
2022-08-20T16:32:44.842Z,25.20
2022-08-20T16:35:31.945Z,25.20
2022-08-20T16:38:08.108Z,25.30
2022-08-20T16:40:44.467Z,25.50
2022-08-20T16:43:22.478Z,25.50
2022-08-20T16:45:55.272Z,25.30
2022-08-20T16:48:31.517Z,25.40
2022-08-20T16:51:07.221Z,25.40
2022-08-20T16:53:36.830Z,25.40
2022-08-20T16:56:06.610Z,25.30
2022-08-20T16:58:35.292Z,25.10
2022-08-20T17:01:11.658Z,24.80
2022-08-20T17:03:49.671Z,24.70
2022-08-20T17:06:27.554Z,24.50
2022-08-20T17:08:56.538Z,24.50
2022-08-20T17:11:32.016Z,24.50
2022-08-20T17:14:10.262Z,24.50
2022-08-20T17:16:41.969Z,24.50
2022-08-20T17:19:20.177Z,24.60
2022-08-20T17:21:50.809Z,24.80
2022-08-20T17:24:25.410Z,24.80
2022-08-20T17:27:00.556Z,24.90
2022-08-20T17:29:31.766Z,24.90
2022-08-20T17:32:02.548Z,24.80
2022-08-20T17:34:34.027Z,24.70
2022-08-20T17:37:09.396Z,24.70
2022-08-20T17:39:46.978Z,24.50
2022-08-20T17:42:19.734Z,24.30
2022-08-20T17:44:54.080Z,24.00
2022-08-20T17:47:32.281Z,24.10
2022-08-20T17:50:09.191Z,24.50
2022-08-20T17:52:46.567Z,24.50
2022-08-20T17:55:15.317Z,24.00
2022-08-20T17:57:47.415Z,23.60
2022-08-20T18:00:23.716Z,23.40
2022-08-20T18:02:54.092Z,23.00
2022-08-20T18:05:24.148Z,22.80
2022-08-20T18:08:08.672Z,22.80
2022-08-20T18:10:44.185Z,22.90
2022-08-20T18:13:19.657Z,22.70
2022-08-20T18:15:54.866Z,22.60
2022-08-20T18:18:31.713Z,22.30
2022-08-20T18:21:21.747Z,22.10
2022-08-20T18:23:56.402Z,22.00
2022-08-20T18:26:29.189Z,22.00
2022-08-20T18:29:08.549Z,21.90
2022-08-20T18:31:43.745Z,21.70
2022-08-20T18:34:14.165Z,21.70
2022-08-20T18:36:43.092Z,21.70
2022-08-20T18:39:26.179Z,21.60
2022-08-20T18:42:02.190Z,21.60
2022-08-20T18:44:39.171Z,21.60
2022-08-20T18:47:19.869Z,21.40
2022-08-20T18:49:59.245Z,21.30
2022-08-20T18:52:31.159Z,21.20
2022-08-20T18:55:05.455Z,21.20
2022-08-20T18:57:41.155Z,21.10
2022-08-20T19:00:14.194Z,21.00
2022-08-20T19:02:56.833Z,20.90
2022-08-20T19:05:30.442Z,20.90
2022-08-20T19:08:02.103Z,20.80
2022-08-20T19:10:47.499Z,20.80
2022-08-20T19:13:49.785Z,20.80
2022-08-20T19:16:23.394Z,20.70
2022-08-20T19:18:54.216Z,20.70
2022-08-20T19:21:27.056Z,20.70
2022-08-20T19:23:59.469Z,20.70
2022-08-20T19:26:33.110Z,20.60
2022-08-20T19:29:05.316Z,20.60
2022-08-20T19:31:36.863Z,20.50
2022-08-20T19:34:20.272Z,20.50
2022-08-20T19:36:57.310Z,20.40
2022-08-20T19:39:27.325Z,20.30
2022-08-20T19:42:01.399Z,20.30
2022-08-20T19:44:39.324Z,20.20
2022-08-20T19:47:17.953Z,20.10
2022-08-20T19:49:59.054Z,20.00
2022-08-20T19:52:39.583Z,19.90
2022-08-20T19:55:26.811Z,19.80
2022-08-20T19:58:00.320Z,19.70
2022-08-20T20:00:33.860Z,19.70
2022-08-20T20:03:10.159Z,19.70
2022-08-20T20:05:50.314Z,19.60
2022-08-20T20:08:19.171Z,19.60
2022-08-20T20:10:53.861Z,19.50
2022-08-20T20:13:25.243Z,19.40
2022-08-20T20:15:57.251Z,19.40
2022-08-20T20:18:30.104Z,19.30
2022-08-20T20:21:15.821Z,19.30
2022-08-20T20:23:54.432Z,19.20
2022-08-20T20:26:23.569Z,19.20
2022-08-20T20:29:01.376Z,19.10
2022-08-20T20:31:32.133Z,19.10
2022-08-20T20:34:05.488Z,18.90
2022-08-20T20:36:37.921Z,18.80
2022-08-20T20:39:13.737Z,18.70
2022-08-20T20:41:53.061Z,18.60
2022-08-20T20:44:26.886Z,18.50
2022-08-20T20:46:58.497Z,18.50
2022-08-20T20:49:29.526Z,18.50
2022-08-20T20:52:02.617Z,18.50
2022-08-20T20:54:42.183Z,18.30
2022-08-20T20:57:37.736Z,18.30
2022-08-20T21:00:13.314Z,18.30
2022-08-20T21:02:42.658Z,18.10
2022-08-20T21:05:12.491Z,18.00
2022-08-20T21:07:50.229Z,17.90
2022-08-20T21:10:22.017Z,17.80
2022-08-20T21:12:56.687Z,17.80
2022-08-20T21:15:27.934Z,17.80
2022-08-20T21:18:00.472Z,17.70
2022-08-20T21:20:29.477Z,17.70
2022-08-20T21:22:59.132Z,17.70
2022-08-20T21:25:30.297Z,17.90
2022-08-20T21:27:59.126Z,17.90
2022-08-20T21:30:29.864Z,17.80
2022-08-20T21:32:58.711Z,17.80
2022-08-20T21:35:27.907Z,17.80
2022-08-20T21:37:56.544Z,17.70
2022-08-20T21:40:28.195Z,17.60
2022-08-20T21:42:57.598Z,17.60
2022-08-20T21:45:28.855Z,17.50
2022-08-20T21:47:58.447Z,17.50
2022-08-20T21:50:28.585Z,17.40
2022-08-20T21:52:59.748Z,17.40
2022-08-20T21:55:34.052Z,17.40
2022-08-20T21:58:04.499Z,17.40
2022-08-20T22:00:52.597Z,17.40
2022-08-20T22:03:23.144Z,17.30
2022-08-20T22:05:52.938Z,17.20
2022-08-20T22:08:24.265Z,17.10
2022-08-20T22:10:58.320Z,17.10
2022-08-20T22:13:31.672Z,17.00
2022-08-20T22:16:03.631Z,17.10
2022-08-20T22:18:33.296Z,17.00
2022-08-20T22:21:02.545Z,17.00
2022-08-20T22:23:31.689Z,16.90
2022-08-20T22:26:00.468Z,16.90
2022-08-20T22:28:29.073Z,16.90
2022-08-20T22:30:58.364Z,16.90
2022-08-20T22:33:28.703Z,16.90
2022-08-20T22:35:58.711Z,16.90
2022-08-20T22:38:27.947Z,16.80
2022-08-20T22:40:56.837Z,16.70
2022-08-20T22:43:25.913Z,16.60
2022-08-20T22:45:58.638Z,16.60
2022-08-20T22:48:29.222Z,16.60
2022-08-20T22:50:58.927Z,16.60
2022-08-20T22:53:28.613Z,16.60
2022-08-20T22:55:57.430Z,16.50
2022-08-20T22:58:30.409Z,16.50
2022-08-20T23:01:02.298Z,16.40
2022-08-20T23:03:39.482Z,16.30
2022-08-20T23:06:10.203Z,16.20
2022-08-20T23:08:39.141Z,16.20
2022-08-20T23:11:08.071Z,16.20
2022-08-20T23:13:36.663Z,16.20
2022-08-20T23:16:06.710Z,16.20
2022-08-20T23:18:36.825Z,16.10
2022-08-20T23:21:05.830Z,16.00
2022-08-20T23:23:34.590Z,16.00
2022-08-20T23:26:03.958Z,16.00
2022-08-20T23:28:32.688Z,16.00
2022-08-20T23:31:01.579Z,16.00
2022-08-20T23:33:31.602Z,16.00
2022-08-20T23:36:06.066Z,15.90
2022-08-20T23:38:34.816Z,15.90
2022-08-20T23:41:03.535Z,15.80
2022-08-20T23:43:32.249Z,15.80
2022-08-20T23:46:05.368Z,15.80
2022-08-20T23:48:34.518Z,15.80
2022-08-20T23:51:05.201Z,15.70
2022-08-20T23:53:33.959Z,15.70
2022-08-20T23:56:03.100Z,15.70
2022-08-20T23:58:31.780Z,15.70
